createdAt,value
2018-12-15T00:01:25.921Z,9.63
2018-12-15T00:03:59.344Z,9.53
2018-12-15T00:06:29.748Z,6.50
2018-12-15T00:09:00.846Z,7.83
2018-12-15T00:11:31.453Z,7.37
2018-12-15T00:14:00.738Z,11.60
2018-12-15T00:16:30.726Z,12.97
2018-12-15T00:19:18.912Z,8.73
2018-12-15T00:21:48.312Z,9.43
2018-12-15T00:24:18.033Z,8.47
2018-12-15T00:26:47.925Z,8.10
2018-12-15T00:29:17.231Z,7.83
2018-12-15T00:31:48.976Z,7.23
2018-12-15T00:34:18.024Z,7.57
2018-12-15T00:36:47.151Z,8.70
2018-12-15T00:39:24.147Z,8.57
2018-12-15T00:41:55.492Z,10.00
2018-12-15T00:44:24.431Z,7.70
2018-12-15T00:46:53.585Z,8.67
2018-12-15T00:49:40.169Z,7.80
2018-12-15T00:52:09.356Z,8.40
2018-12-15T00:54:38.189Z,8.50
2018-12-15T00:57:07.523Z,8.43
2018-12-15T00:59:41.186Z,9.37
2018-12-15T01:02:10.370Z,8.67
2018-12-15T01:04:41.829Z,10.47
2018-12-15T01:07:11.369Z,8.03
2018-12-15T01:09:46.431Z,8.03
2018-12-15T01:12:16.973Z,7.90
2018-12-15T01:14:46.192Z,8.47
2018-12-15T01:17:20.544Z,7.90
2018-12-15T01:19:47.656Z,7.83
2018-12-15T01:22:17.354Z,8.70
2018-12-15T01:24:46.366Z,7.70
2018-12-15T01:27:25.155Z,7.93
2018-12-15T01:29:54.156Z,8.40
2018-12-15T01:32:23.493Z,7.50
2018-12-15T01:34:52.724Z,7.63
2018-12-15T01:37:21.905Z,7.13
2018-12-15T01:39:51.215Z,9.73
2018-12-15T01:42:26.497Z,9.20
2018-12-15T01:44:55.360Z,7.33
2018-12-15T01:47:27.112Z,7.13
2018-12-15T01:49:55.931Z,7.83
2018-12-15T01:55:26.693Z,9.20
2018-12-15T01:57:55.544Z,8.27
2018-12-15T02:00:24.800Z,8.00
2018-12-15T02:02:54.425Z,8.70
2018-12-15T02:05:35.756Z,8.07
2018-12-15T02:08:04.896Z,7.57
2018-12-15T02:10:33.724Z,7.67
2018-12-15T02:13:03.167Z,7.70
2018-12-15T02:15:41.815Z,7.87
2018-12-15T02:18:10.956Z,7.07
2018-12-15T02:20:40.846Z,7.63
2018-12-15T02:23:10.300Z,12.07
2018-12-15T02:25:40.791Z,7.73
2018-12-15T02:28:10.502Z,6.13
2018-12-15T02:30:39.707Z,7.57
2018-12-15T02:33:08.869Z,7.23
2018-12-15T02:35:44.026Z,8.53
2018-12-15T02:38:13.117Z,8.10
2018-12-15T02:40:42.290Z,7.97
2018-12-15T02:43:11.839Z,7.70
2018-12-15T02:45:41.027Z,8.43
2018-12-15T02:48:10.391Z,7.47
2018-12-15T02:50:40.221Z,8.73
2018-12-15T02:53:09.336Z,7.33
2018-12-15T02:55:40.343Z,8.27
2018-12-15T02:58:09.473Z,7.63
2018-12-15T03:00:43.335Z,8.33
2018-12-15T03:03:12.581Z,7.60
2018-12-15T03:05:41.684Z,8.87
2018-12-15T03:08:10.835Z,7.87
2018-12-15T03:10:53.948Z,8.33
2018-12-15T03:13:22.838Z,8.00
2018-12-15T03:15:51.680Z,7.80
2018-12-15T03:18:21.105Z,7.70
2018-12-15T03:21:01.850Z,6.97
2018-12-15T03:23:31.989Z,7.23
2018-12-15T03:26:01.185Z,8.00
2018-12-15T03:28:30.395Z,7.37
2018-12-15T03:30:59.614Z,6.23
2018-12-15T03:33:28.854Z,6.87
2018-12-15T03:35:57.713Z,8.20
2018-12-15T03:38:26.970Z,6.73
2018-12-15T03:40:56.084Z,8.37
2018-12-15T03:43:25.191Z,7.90
2018-12-15T03:45:54.571Z,8.30
2018-12-15T03:48:23.673Z,7.57
2018-12-15T03:50:52.705Z,8.43
2018-12-15T03:53:21.845Z,8.00
2018-12-15T03:55:50.974Z,6.70
2018-12-15T03:58:20.102Z,7.07
2018-12-15T04:01:02.030Z,7.63
2018-12-15T04:03:31.125Z,7.83
2018-12-15T04:06:00.312Z,8.40
2018-12-15T04:08:29.426Z,7.67
2018-12-15T04:10:58.630Z,7.83
2018-12-15T04:13:27.699Z,8.13
2018-12-15T04:16:11.228Z,7.93
2018-12-15T04:18:40.345Z,7.43
2018-12-15T04:21:09.463Z,10.67
2018-12-15T04:23:38.580Z,8.10
2018-12-15T04:26:07.677Z,8.20
2018-12-15T04:28:37.373Z,6.70
2018-12-15T04:31:20.641Z,8.97
2018-12-15T04:33:49.609Z,7.40
2018-12-15T04:36:19.425Z,7.37
2018-12-15T04:38:48.551Z,7.77
2018-12-15T04:41:27.155Z,11.63
2018-12-15T04:43:56.826Z,8.27
2018-12-15T04:46:25.950Z,8.23
2018-12-15T04:48:55.030Z,7.50
2018-12-15T04:51:24.571Z,8.40
2018-12-15T04:54:15.586Z,7.57
2018-12-15T04:56:44.671Z,10.97
2018-12-15T04:59:13.771Z,7.10
2018-12-15T05:01:43.008Z,6.30
2018-12-15T05:07:06.908Z,7.93
2018-12-15T05:09:38.335Z,7.77
2018-12-15T05:12:07.543Z,8.20
2018-12-15T05:14:36.621Z,8.30
2018-12-15T05:17:05.624Z,7.90
2018-12-15T05:19:34.423Z,7.77
2018-12-15T05:22:22.510Z,7.23
2018-12-15T05:24:51.883Z,7.23
2018-12-15T05:27:21.210Z,8.80
2018-12-15T05:29:52.825Z,6.57
2018-12-15T05:32:23.146Z,8.37
2018-12-15T05:34:52.309Z,7.37
2018-12-15T05:40:18.974Z,11.87
2018-12-15T05:42:48.141Z,12.57
2018-12-15T05:45:17.212Z,7.60
2018-12-15T05:47:46.486Z,8.13
2018-12-15T05:53:14.566Z,7.47
2018-12-15T05:55:44.388Z,6.83
2018-12-15T05:58:13.571Z,6.90
2018-12-15T06:00:42.628Z,6.70
2018-12-15T06:03:21.250Z,8.80
2018-12-15T06:05:50.389Z,7.40
2018-12-15T06:08:19.534Z,9.00
2018-12-15T06:10:49.174Z,8.10
2018-12-15T06:13:26.190Z,7.20
2018-12-15T06:15:55.299Z,7.13
2018-12-15T06:18:31.442Z,8.40
2018-12-15T06:20:56.346Z,7.00
2018-12-15T06:23:25.444Z,7.50
2018-12-15T06:25:55.287Z,8.17
2018-12-15T06:28:32.700Z,8.63
2018-12-15T06:31:02.347Z,11.23
2018-12-15T06:33:31.223Z,10.03
2018-12-15T06:36:00.464Z,11.00
2018-12-15T06:38:29.990Z,9.50
2018-12-15T06:40:59.145Z,7.93
2018-12-15T06:43:28.785Z,10.53
2018-12-15T06:45:58.135Z,8.43
2018-12-15T06:48:28.411Z,8.10
2018-12-15T06:50:57.606Z,7.33
2018-12-15T06:53:26.761Z,8.77
2018-12-15T06:55:55.905Z,8.50
2018-12-15T06:58:24.724Z,8.50
2018-12-15T07:00:53.910Z,8.70
2018-12-15T07:03:23.793Z,8.53
2018-12-15T07:05:52.958Z,7.93
2018-12-15T07:11:15.342Z,8.43
2018-12-15T07:13:44.578Z,7.00
2018-12-15T07:16:13.716Z,9.43
2018-12-15T07:18:44.988Z,8.07
2018-12-15T07:21:14.308Z,6.33
2018-12-15T07:23:43.430Z,7.80
2018-12-15T07:26:12.589Z,7.37
2018-12-15T07:29:02.142Z,7.80
2018-12-15T07:31:31.144Z,7.50
2018-12-15T07:34:00.448Z,7.53
2018-12-15T07:36:29.619Z,7.53
2018-12-15T07:39:01.234Z,8.37
2018-12-15T07:41:30.570Z,8.40
2018-12-15T07:44:00.052Z,7.87
2018-12-15T07:46:29.328Z,7.03
2018-12-15T07:49:01.059Z,8.30
2018-12-15T07:51:30.448Z,8.20
2018-12-15T07:54:00.007Z,9.13
2018-12-15T07:56:29.727Z,8.73
2018-12-15T07:59:00.536Z,22.17
2018-12-15T08:01:29.844Z,13.57
2018-12-15T08:03:59.534Z,9.63
2018-12-15T08:06:28.698Z,8.33
2018-12-15T08:09:01.878Z,10.17
2018-12-15T08:11:36.618Z,8.60
2018-12-15T08:14:10.238Z,7.00
2018-12-15T08:16:40.284Z,7.70
2018-12-15T08:19:09.485Z,6.80
2018-12-15T08:21:39.679Z,8.17
2018-12-15T08:24:09.690Z,9.13
2018-12-15T08:26:38.895Z,7.60
2018-12-15T08:29:08.107Z,6.93
2018-12-15T08:31:37.733Z,6.87
2018-12-15T08:34:09.013Z,7.83
2018-12-15T08:36:39.664Z,6.47
2018-12-15T08:39:16.285Z,6.80
2018-12-15T08:41:46.034Z,7.07
2018-12-15T08:44:15.241Z,6.80
2018-12-15T08:46:45.273Z,6.83
2018-12-15T08:49:21.838Z,6.60
2018-12-15T08:51:53.976Z,6.60
2018-12-15T08:54:23.756Z,6.83
2018-12-15T08:56:52.958Z,5.83
2018-12-15T08:59:34.526Z,6.07
2018-12-15T09:02:03.649Z,5.73
2018-12-15T09:04:32.843Z,5.93
2018-12-15T09:07:04.857Z,6.43
2018-12-15T09:09:34.118Z,6.17
2018-12-15T09:12:05.643Z,6.40
2018-12-15T09:14:34.688Z,6.40
2018-12-15T09:17:08.173Z,6.00
2018-12-15T09:19:38.248Z,6.43
2018-12-15T09:22:11.509Z,7.23
2018-12-15T09:24:38.674Z,6.63
2018-12-15T09:27:08.273Z,7.90
2018-12-15T09:29:37.668Z,7.40
2018-12-15T09:32:07.653Z,6.67
2018-12-15T09:34:37.213Z,8.23
2018-12-15T09:37:07.912Z,9.30
2018-12-15T09:39:40.972Z,8.07
2018-12-15T09:42:10.633Z,8.50
2018-12-15T09:44:39.987Z,7.67
2018-12-15T09:47:09.381Z,7.63
2018-12-15T09:52:41.242Z,7.37
2018-12-15T09:55:11.518Z,6.77
2018-12-15T09:57:42.940Z,6.83
2018-12-15T10:00:12.224Z,7.33
2018-12-15T10:02:41.582Z,8.17
2018-12-15T10:05:12.305Z,8.97
2018-12-15T10:07:44.620Z,8.33
2018-12-15T10:10:14.784Z,8.13
2018-12-15T10:12:45.759Z,7.80
2018-12-15T10:15:15.439Z,8.50
2018-12-15T10:18:02.056Z,6.53
2018-12-15T10:20:32.083Z,7.10
2018-12-15T10:23:02.319Z,7.80
2018-12-15T10:25:32.941Z,6.83
2018-12-15T10:28:05.631Z,6.80
2018-12-15T10:33:58.380Z,7.37
2018-12-15T10:36:28.785Z,6.73
2018-12-15T10:38:57.641Z,6.20
2018-12-15T10:41:27.448Z,6.60
2018-12-15T10:43:57.415Z,6.47
2018-12-15T10:46:26.819Z,6.20
2018-12-15T10:48:55.763Z,6.67
2018-12-15T10:51:32.818Z,6.70
2018-12-15T10:54:02.356Z,5.60
2018-12-15T10:56:32.328Z,6.23
2018-12-15T10:59:01.641Z,7.63
2018-12-15T11:01:32.897Z,6.20
2018-12-15T11:04:02.469Z,6.50
2018-12-15T11:06:37.569Z,6.10
2018-12-15T11:09:09.061Z,7.80
2018-12-15T11:11:38.400Z,6.20
2018-12-15T11:14:25.562Z,6.50
2018-12-15T11:16:55.737Z,8.20
2018-12-15T11:19:25.971Z,7.50
2018-12-15T11:21:55.339Z,7.07
2018-12-15T11:24:25.329Z,10.50
2018-12-15T11:26:58.507Z,9.17
2018-12-15T11:29:27.634Z,11.17
2018-12-15T11:31:56.583Z,7.83
2018-12-15T11:34:27.707Z,7.30
2018-12-15T11:36:56.644Z,8.37
2018-12-15T11:39:38.235Z,7.40
2018-12-15T11:42:07.480Z,7.77
2018-12-15T11:44:37.367Z,7.03
2018-12-15T11:47:09.268Z,7.50
2018-12-15T11:49:43.604Z,8.10
2018-12-15T11:52:12.673Z,7.67
2018-12-15T11:54:43.678Z,7.53
2018-12-15T11:57:12.916Z,7.43
2018-12-15T11:59:46.694Z,7.23
2018-12-15T12:02:17.058Z,7.27
2018-12-15T12:04:47.663Z,6.83
2018-12-15T12:07:17.708Z,7.80
2018-12-15T12:09:48.226Z,8.10
2018-12-15T12:12:17.195Z,6.70
2018-12-15T12:14:46.798Z,6.87
2018-12-15T12:17:17.146Z,8.17
2018-12-15T12:19:50.151Z,7.63
2018-12-15T12:22:17.766Z,8.10
2018-12-15T12:24:47.353Z,8.53
2018-12-15T12:27:17.527Z,7.97
2018-12-15T12:29:49.322Z,8.27
2018-12-15T12:32:20.410Z,9.07
2018-12-15T12:34:51.366Z,8.57
2018-12-15T12:37:21.833Z,7.57
2018-12-15T12:39:51.428Z,8.30
2018-12-15T12:42:23.277Z,7.40
2018-12-15T12:44:54.162Z,8.03
2018-12-15T12:47:24.772Z,8.63
2018-12-15T12:49:57.044Z,7.17
2018-12-15T12:52:25.392Z,6.47
2018-12-15T12:54:55.078Z,6.63
2018-12-15T12:57:26.293Z,7.80
2018-12-15T12:59:55.821Z,6.47
2018-12-15T13:02:25.098Z,6.50
2018-12-15T13:04:54.410Z,8.47
2018-12-15T13:07:23.288Z,8.90
2018-12-15T13:09:56.223Z,7.80
2018-12-15T13:12:35.641Z,7.80
2018-12-15T13:15:06.264Z,7.03
2018-12-15T13:17:35.628Z,7.40
2018-12-15T13:20:08.497Z,6.47
2018-12-15T13:22:44.850Z,8.23
2018-12-15T13:25:14.509Z,8.93
2018-12-15T13:27:45.433Z,10.17
2018-12-15T13:30:16.347Z,17.70
2018-12-15T13:32:46.821Z,8.77
2018-12-15T13:35:16.312Z,6.13
2018-12-15T13:37:49.608Z,7.63
2018-12-15T13:40:23.175Z,6.63
2018-12-15T13:42:53.522Z,12.63
2018-12-15T13:45:29.623Z,12.80
2018-12-15T13:48:01.543Z,11.37
2018-12-15T13:50:32.088Z,12.17
2018-12-15T13:53:05.294Z,9.27
2018-12-15T13:55:57.451Z,8.87
2018-12-15T13:58:27.218Z,8.00
2018-12-15T14:00:57.371Z,7.23
2018-12-15T14:03:26.732Z,7.90
2018-12-15T14:05:58.400Z,8.23
2018-12-15T14:08:27.868Z,7.73
2018-12-15T14:11:04.407Z,7.50
2018-12-15T14:13:34.153Z,7.33
2018-12-15T14:16:03.899Z,7.13
2018-12-15T14:18:33.146Z,7.87
2018-12-15T14:21:02.674Z,7.73
2018-12-15T14:23:33.050Z,8.37
2018-12-15T14:26:05.485Z,10.70
2018-12-15T14:28:35.845Z,7.20
2018-12-15T14:31:05.411Z,7.27
2018-12-15T14:33:44.397Z,7.50
2018-12-15T14:36:18.080Z,8.37
2018-12-15T14:38:46.878Z,7.43
2018-12-15T14:41:17.849Z,7.37
2018-12-15T14:43:48.395Z,7.70
2018-12-15T14:46:18.899Z,7.20
2018-12-15T14:48:48.116Z,7.13
2018-12-15T14:51:18.830Z,8.40
2018-12-15T14:53:48.192Z,7.50
2018-12-15T14:56:19.400Z,8.00
2018-12-15T14:58:48.901Z,8.17
2018-12-15T15:01:19.891Z,8.90
2018-12-15T15:03:51.585Z,8.07
2018-12-15T15:06:22.378Z,7.43
2018-12-15T15:08:53.721Z,8.20
2018-12-15T15:11:23.888Z,8.63
2018-12-15T15:13:54.402Z,7.43
2018-12-15T15:16:29.116Z,7.67
2018-12-15T15:18:59.109Z,7.97
2018-12-15T15:21:28.190Z,7.87
2018-12-15T15:23:57.067Z,6.70
2018-12-15T15:26:26.474Z,7.90
2018-12-15T15:28:56.745Z,7.73
2018-12-15T15:31:26.678Z,7.37
2018-12-15T15:33:56.314Z,7.03
2018-12-15T15:36:27.341Z,8.23
2018-12-15T15:38:58.213Z,12.53
2018-12-15T15:41:29.575Z,7.40
2018-12-15T15:44:00.061Z,15.40
2018-12-15T15:46:29.627Z,9.47
2018-12-15T15:48:59.021Z,8.97
2018-12-15T15:51:29.225Z,8.63
2018-12-15T15:53:58.671Z,8.90
2018-12-15T15:56:34.456Z,8.23
2018-12-15T15:59:04.235Z,8.50
2018-12-15T16:01:35.046Z,9.40
2018-12-15T16:04:04.492Z,10.20
2018-12-15T16:06:34.814Z,9.20
2018-12-15T16:09:11.758Z,9.03
2018-12-15T16:11:42.780Z,13.60
2018-12-15T16:14:13.703Z,8.13
2018-12-15T16:16:43.122Z,9.40
2018-12-15T16:19:15.368Z,7.83
2018-12-15T16:21:46.239Z,7.87
2018-12-15T16:24:16.125Z,8.03
2018-12-15T16:26:47.519Z,8.37
2018-12-15T16:32:17.830Z,8.27
2018-12-15T16:34:46.956Z,8.90
2018-12-15T16:37:19.795Z,7.50
2018-12-15T16:39:49.137Z,7.33
2018-12-15T16:42:20.227Z,9.70
2018-12-15T16:44:50.897Z,7.13
2018-12-15T16:47:24.983Z,7.37
2018-12-15T16:49:55.648Z,7.47
2018-12-15T16:52:25.442Z,7.07
2018-12-15T16:54:54.906Z,7.30
2018-12-15T16:57:25.099Z,7.90
2018-12-15T16:59:57.732Z,7.93
2018-12-15T17:02:27.156Z,6.87
2018-12-15T17:04:56.622Z,8.07
2018-12-15T17:07:25.561Z,8.27
2018-12-15T17:09:54.625Z,8.77
2018-12-15T17:12:24.733Z,11.67
2018-12-15T17:14:54.345Z,10.67
2018-12-15T17:17:24.512Z,19.37
2018-12-15T17:19:53.993Z,9.20
2018-12-15T17:22:24.820Z,14.03
2018-12-15T17:24:55.180Z,21.70
2018-12-15T17:27:33.802Z,14.20
2018-12-15T17:30:03.938Z,13.83
2018-12-15T17:32:35.402Z,10.87
2018-12-15T17:35:06.476Z,11.03
2018-12-15T17:37:36.096Z,12.03
2018-12-15T17:40:06.461Z,11.40
2018-12-15T17:42:37.524Z,13.40
2018-12-15T17:45:09.406Z,12.77
2018-12-15T17:47:38.679Z,11.87
2018-12-15T17:50:09.423Z,11.40
2018-12-15T17:52:38.391Z,11.13
2018-12-15T17:55:07.884Z,10.67
2018-12-15T17:57:52.836Z,12.83
2018-12-15T18:00:24.038Z,11.07
2018-12-15T18:02:57.039Z,11.57
2018-12-15T18:05:28.176Z,13.03
2018-12-15T18:07:59.189Z,15.93
2018-12-15T18:10:30.395Z,11.50
2018-12-15T18:12:59.891Z,12.57
2018-12-15T18:15:31.768Z,11.90
2018-12-15T18:18:09.032Z,12.93
2018-12-15T18:20:39.089Z,11.87
2018-12-15T18:23:14.852Z,12.80
2018-12-15T18:25:44.516Z,12.90
2018-12-15T18:28:14.252Z,11.90
2018-12-15T18:30:44.320Z,12.67
2018-12-15T18:33:15.332Z,13.27
2018-12-15T18:35:46.319Z,13.70
2018-12-15T18:38:17.307Z,13.77
2018-12-15T18:40:48.424Z,13.93
2018-12-15T18:43:21.211Z,12.57
2018-12-15T18:45:51.863Z,13.97
2018-12-15T18:48:23.261Z,13.77
2018-12-15T18:50:53.673Z,14.43
2018-12-15T18:53:24.805Z,14.20
2018-12-15T18:56:01.450Z,14.23
2018-12-15T18:58:31.365Z,14.27
2018-12-15T19:01:01.966Z,13.70
2018-12-15T19:03:32.750Z,13.30
2018-12-15T19:06:06.814Z,15.23
2018-12-15T19:08:38.546Z,14.10
2018-12-15T19:11:09.508Z,13.83
2018-12-15T19:17:09.183Z,15.20
2018-12-15T19:19:39.474Z,14.03
2018-12-15T19:22:11.585Z,15.23
2018-12-15T19:25:01.146Z,16.17
2018-12-15T19:27:31.268Z,17.77
2018-12-15T19:30:01.191Z,15.53
2018-12-15T19:32:31.240Z,15.87
2018-12-15T19:35:03.274Z,14.83
2018-12-15T19:37:35.649Z,14.53
2018-12-15T19:40:06.478Z,16.47
2018-12-15T19:42:36.094Z,15.93
2018-12-15T19:45:11.658Z,13.07
2018-12-15T19:47:41.033Z,13.03
2018-12-15T19:50:11.774Z,14.73
2018-12-15T19:52:42.438Z,15.90
2018-12-15T19:55:12.926Z,14.00
2018-12-15T19:57:42.300Z,18.40
2018-12-15T20:00:27.471Z,14.40
2018-12-15T20:02:57.213Z,14.13
2018-12-15T20:05:27.468Z,15.13
2018-12-15T20:08:00.290Z,14.97
2018-12-15T20:10:35.416Z,14.40
2018-12-15T20:13:08.564Z,14.70
2018-12-15T20:15:40.502Z,15.10
2018-12-15T20:18:11.919Z,15.80
2018-12-15T20:21:01.400Z,14.77
2018-12-15T20:23:30.487Z,15.90
2018-12-15T20:25:59.405Z,14.43
2018-12-15T20:28:29.259Z,13.87
2018-12-15T20:30:58.821Z,15.30
2018-12-15T20:33:27.900Z,15.07
2018-12-15T20:35:57.772Z,15.37
2018-12-15T20:38:27.397Z,16.47
2018-12-15T20:40:57.403Z,16.07
2018-12-15T20:43:32.424Z,15.43
2018-12-15T20:48:44.956Z,14.67
2018-12-15T20:51:15.107Z,13.83
2018-12-15T20:53:44.767Z,13.70
2018-12-15T20:56:15.127Z,14.37
2018-12-15T20:58:45.186Z,15.23
2018-12-15T21:01:14.699Z,15.60
2018-12-15T21:03:45.406Z,15.20
2018-12-15T21:06:19.742Z,15.03
2018-12-15T21:08:48.747Z,15.30
2018-12-15T21:11:24.139Z,15.80
2018-12-15T21:13:54.777Z,14.57
2018-12-15T21:16:25.810Z,16.13
2018-12-15T21:18:58.320Z,14.83
2018-12-15T21:21:30.128Z,15.33
2018-12-15T21:24:03.407Z,14.47
2018-12-15T21:26:33.329Z,13.90
2018-12-15T21:29:05.221Z,15.57
2018-12-15T21:31:34.579Z,15.50
2018-12-15T21:34:08.048Z,13.93
2018-12-15T21:36:36.793Z,16.23
2018-12-15T21:39:08.822Z,14.83
2018-12-15T21:41:38.040Z,13.93
2018-12-15T21:44:10.984Z,14.03
2018-12-15T21:46:41.403Z,14.80
2018-12-15T21:49:11.663Z,13.83
2018-12-15T21:51:40.688Z,14.50
2018-12-15T21:54:11.598Z,13.90
2018-12-15T21:56:41.706Z,13.93
2018-12-15T21:59:12.482Z,13.27
2018-12-15T22:01:42.267Z,13.07
2018-12-15T22:04:12.908Z,13.17
2018-12-15T22:06:42.065Z,14.23
2018-12-15T22:09:12.225Z,12.97
2018-12-15T22:11:41.373Z,12.77
2018-12-15T22:14:17.041Z,13.13
2018-12-15T22:16:46.753Z,12.40
2018-12-15T22:19:17.285Z,12.60
2018-12-15T22:21:46.635Z,13.50
2018-12-15T22:24:21.025Z,11.93
2018-12-15T22:26:52.052Z,12.70
2018-12-15T22:29:22.264Z,14.20
2018-12-15T22:31:52.205Z,12.33
2018-12-15T22:34:21.488Z,11.23
2018-12-15T22:36:51.791Z,13.00
2018-12-15T22:39:22.774Z,13.40
2018-12-15T22:41:53.237Z,12.30
2018-12-15T22:44:23.369Z,9.47
2018-12-15T22:46:52.708Z,12.10
2018-12-15T22:49:24.309Z,10.37
2018-12-15T22:51:55.134Z,12.17
2018-12-15T22:54:25.056Z,8.77
2018-12-15T22:56:55.117Z,13.00
2018-12-15T22:59:30.243Z,10.70
2018-12-15T23:01:59.996Z,9.67
2018-12-15T23:04:30.711Z,12.90
2018-12-15T23:07:06.076Z,10.63
2018-12-15T23:09:36.189Z,11.67
2018-12-15T23:12:07.817Z,9.90
2018-12-15T23:14:39.343Z,11.13
2018-12-15T23:17:08.996Z,11.37
2018-12-15T23:19:38.290Z,10.37
2018-12-15T23:22:16.137Z,10.93
2018-12-15T23:24:40.778Z,8.70
2018-12-15T23:27:11.030Z,7.60
2018-12-15T23:29:41.312Z,7.80
2018-12-15T23:32:11.999Z,8.17
2018-12-15T23:34:41.050Z,7.53
2018-12-15T23:37:10.860Z,8.93
2018-12-15T23:39:40.138Z,11.13
2018-12-15T23:42:12.626Z,9.13
2018-12-15T23:44:42.583Z,8.73
2018-12-15T23:47:11.813Z,7.17
2018-12-15T23:49:42.697Z,6.83
2018-12-15T23:52:12.712Z,7.80
2018-12-15T23:54:44.086Z,10.03
2018-12-15T23:57:13.752Z,9.47
2018-12-15T23:59:42.644Z,7.97
